Time;durP1;ratioP1;P1;durP2;ratioP2;P2;SDS_P1;SDS_P2;PMS_P1;PMS_P2;Temp;Humidity;BMP_temperature;BMP_pressure;BME280_temperature;BME280_humidity;BME280_pressure;Samples;Min_cycle;Max_cycle;Signal;HPM_P1;HPM_P2
2022/12/02 00:00:23;;;;;;;73.50;30.80;;;;;;;2.39;100.00;95876.75;5012360;28;20598;-79
2022/12/02 00:02:48;;;;;;;86.67;31.30;;;;;;;2.39;100.00;95879.31;5028846;28;20239;-79
2022/12/02 00:05:14;;;;;;;78.37;31.97;;;;;;;2.40;100.00;95871.53;5012699;28;20187;-79
2022/12/02 00:07:39;;;;;;;103.80;34.23;;;;;;;2.42;100.00;95874.81;5014155;28;20219;-80
2022/12/02 00:10:31;;;;;;;169.60;36.37;;;;;;;2.43;100.00;95876.47;4996040;28;20638;-79
2022/12/02 00:13:26;;;;;;;76.10;29.93;;;;;;;2.48;100.00;95876.19;5011415;28;20221;-80
2022/12/02 00:15:55;;;;;;;63.20;30.07;;;;;;;2.47;100.00;95875.38;5011628;28;20183;-80
2022/12/02 00:18:20;;;;;;;152.97;36.83;;;;;;;2.42;100.00;95872.25;4995507;28;20616;-80
2022/12/02 00:20:46;;;;;;;176.80;33.60;;;;;;;2.30;100.00;95869.56;5011940;28;20191;-80
2022/12/02 00:23:11;;;;;;;226.20;39.70;;;;;;;2.31;100.00;95872.06;5028536;28;20261;-79
2022/12/02 00:25:37;;;;;;;107.90;32.70;;;;;;;2.41;100.00;95870.59;4996460;28;20188;-80
2022/12/02 00:28:03;;;;;;;95.77;32.33;;;;;;;2.42;100.00;95866.28;4995350;28;20267;-78
2022/12/02 00:30:28;;;;;;;74.13;33.77;;;;;;;2.45;100.00;95864.38;5011975;28;20659;-80
2022/12/02 00:32:54;;;;;;;265.43;42.23;;;;;;;2.43;100.00;95855.13;5027958;28;20187;-80
2022/12/02 00:35:20;;;;;;;413.33;43.67;;;;;;;2.33;100.00;95854.84;5012304;28;20236;-79
2022/12/02 00:37:46;;;;;;;164.73;35.60;;;;;;;2.39;100.00;95854.50;5011615;28;20202;-80
2022/12/02 00:40:11;;;;;;;195.90;36.37;;;;;;;2.34;100.00;95853.94;5000992;28;20643;-80
2022/12/02 00:42:36;;;;;;;126.03;32.90;;;;;;;2.35;100.00;95845.31;5033336;28;20190;-80
2022/12/02 00:47:46;;;;;;;170.10;35.03;;;;;;;2.38;100.00;95845.13;5017195;28;20333;-80
2022/12/02 00:50:12;;;;;;;134.07;33.70;;;;;;;2.35;100.00;95842.75;5000236;28;20223;-80
2022/12/02 00:52:37;;;;;;;124.10;35.70;;;;;;;2.38;100.00;95847.69;5016262;28;20393;-80
2022/12/02 00:55:03;;;;;;;260.27;38.83;;;;;;;2.34;100.00;95836.00;5014780;28;20218;-80
2022/12/02 00:57:28;;;;;;;104.90;35.17;;;;;;;2.34;100.00;95835.16;5032561;28;20200;-81
2022/12/02 00:59:53;;;;;;;290.00;38.90;;;;;;;2.25;100.00;95836.53;5015190;28;20190;-81
2022/12/02 01:02:19;;;;;;;331.03;44.50;;;;;;;2.24;100.00;95830.59;5015788;28;20187;-81
2022/12/02 01:04:44;;;;;;;166.70;32.47;;;;;;;2.29;100.00;95827.72;5031521;28;20245;-81
2022/12/02 01:07:09;;;;;;;271.37;39.07;;;;;;;2.24;100.00;95829.75;4998406;28;20262;-82
2022/12/02 01:09:35;;;;;;;233.10;38.80;;;;;;;2.26;100.00;95825.38;5014484;28;20691;-81
2022/12/02 01:12:00;;;;;;;183.80;34.00;;;;;;;2.25;100.00;95821.16;4997071;28;20217;-81
2022/12/02 01:14:25;;;;;;;240.40;36.37;;;;;;;2.20;100.00;95820.59;5012851;28;20202;-80
2022/12/02 01:16:51;;;;;;;134.43;31.53;;;;;;;2.32;100.00;95822.44;5013486;28;20553;-81
2022/12/02 01:19:16;;;;;;;217.43;36.43;;;;;;;2.25;100.00;95826.28;5013234;28;20215;-81
2022/12/02 01:21:41;;;;;;;230.47;37.23;;;;;;;2.24;100.00;95816.94;4996589;28;20229;-80
2022/12/02 01:24:07;;;;;;;157.97;35.07;;;;;;;2.24;100.00;95816.94;5000430;28;20202;-80
2022/12/02 01:26:32;;;;;;;187.67;36.70;;;;;;;2.34;100.00;95812.09;5018232;28;20739;-82
2022/12/02 01:28:57;;;;;;;141.27;31.93;;;;;;;2.37;100.00;95812.72;5034483;28;20190;-81
2022/12/02 01:31:22;;;;;;;257.77;37.40;;;;;;;2.35;100.00;95811.19;5034407;28;20193;-80
2022/12/02 01:33:48;;;;;;;401.30;44.27;;;;;;;2.23;100.00;95811.00;5017381;28;20195;-82
2022/12/02 01:36:13;;;;;;;86.00;30.93;;;;;;;2.30;100.00;95808.91;5033589;28;20247;-81
2022/12/02 01:38:38;;;;;;;219.40;35.10;;;;;;;2.39;100.00;95810.94;5000743;28;20179;-81
2022/12/02 01:41:04;;;;;;;70.93;29.33;;;;;;;2.45;100.00;95810.53;5034025;28;20209;-80
2022/12/02 01:43:29;;;;;;;114.83;32.40;;;;;;;2.39;100.00;95810.94;5017135;28;20223;-80
2022/12/02 01:45:55;;;;;;;100.33;32.47;;;;;;;2.42;100.00;95808.16;5016416;28;20176;-82
2022/12/02 01:48:20;;;;;;;162.10;33.37;;;;;;;2.45;100.00;95799.47;5000363;28;20183;-81
2022/12/02 01:50:46;;;;;;;176.20;32.93;;;;;;;2.42;100.00;95802.22;5033213;28;20211;-82
2022/12/02 01:53:11;;;;;;;80.80;30.80;;;;;;;2.49;100.00;95803.50;5032624;28;20207;-80
2022/12/02 01:55:36;;;;;;;121.37;30.63;;;;;;;2.41;100.00;95805.69;5017171;28;20187;-80
2022/12/02 01:58:02;;;;;;;99.83;29.73;;;;;;;2.42;100.00;95808.16;5032484;28;20183;-81
2022/12/02 02:00:28;;;;;;;119.17;30.20;;;;;;;2.38;100.00;95806.69;5033405;28;20772;-80
2022/12/02 02:02:54;;;;;;;168.83;30.83;;;;;;;2.39;100.00;95813.47;5015757;28;20210;-82
2022/12/02 02:05:22;;;;;;;165.00;32.43;;;;;;;2.37;100.00;95809.34;5015874;28;20184;-81
2022/12/02 02:07:51;;;;;;;461.83;44.30;;;;;;;2.19;100.00;95806.13;4996324;28;20207;-82
2022/12/02 02:10:16;;;;;;;348.00;40.87;;;;;;;2.22;100.00;95805.97;4996593;28;20240;-81
2022/12/02 02:12:43;;;;;;;402.40;42.33;;;;;;;2.24;100.00;95799.00;5030608;28;20607;-80
2022/12/02 02:15:10;;;;;;;197.70;31.80;;;;;;;2.26;100.00;95803.13;4999145;28;20222;-81
2022/12/02 02:17:35;;;;;;;236.80;33.17;;;;;;;2.23;100.00;95799.94;5015746;28;20184;-80
2022/12/02 02:20:01;;;;;;;445.03;44.13;;;;;;;2.23;100.00;95798.19;5016925;28;20721;-81
2022/12/02 02:22:35;;;;;;;233.93;32.87;;;;;;;2.27;100.00;95798.81;4994897;28;20192;-81
2022/12/02 02:25:00;;;;;;;195.60;33.10;;;;;;;2.32;100.00;95794.25;4995324;28;20711;-80
2022/12/02 02:27:26;;;;;;;323.90;34.97;;;;;;;2.32;100.00;95791.69;5014717;28;20206;-81
2022/12/02 02:29:52;;;;;;;317.03;36.07;;;;;;;2.36;100.00;95793.16;5015167;28;20187;-81
2022/12/02 02:32:17;;;;;;;275.67;33.33;;;;;;;2.38;100.00;95791.31;5015246;28;20190;-80
2022/12/02 02:34:42;;;;;;;347.33;37.97;;;;;;;2.36;100.00;95782.06;5033434;28;20210;-81
2022/12/02 02:37:08;;;;;;;130.33;30.97;;;;;;;2.41;100.00;95782.63;5013825;28;20598;-81
2022/12/02 02:39:33;;;;;;;437.73;39.60;;;;;;;2.23;100.00;95782.00;4999410;28;20191;-80
2022/12/02 02:41:58;;;;;;;117.63;28.50;;;;;;;2.37;100.00;95778.59;5016378;28;20305;-81
2022/12/02 02:44:25;;;;;;;147.37;28.37;;;;;;;2.39;100.00;95784.47;5032216;28;20255;-81
2022/12/02 02:46:50;;;;;;;130.40;28.90;;;;;;;2.39;100.00;95782.72;4999029;28;20489;-81
2022/12/02 02:49:15;;;;;;;75.70;26.27;;;;;;;2.44;100.00;95777.31;4999123;28;20274;-81
2022/12/02 02:51:41;;;;;;;233.90;29.90;;;;;;;2.36;100.00;95782.06;5015659;28;20682;-81
2022/12/02 02:54:06;;;;;;;319.67;34.97;;;;;;;2.32;100.00;95773.75;4999067;28;20203;-80
2022/12/02 02:56:32;;;;;;;194.67;28.60;;;;;;;2.39;100.00;95777.59;4998515;28;20184;-81
2022/12/02 02:58:57;;;;;;;551.77;48.77;;;;;;;2.38;100.00;95775.94;4998303;28;20215;-81
2022/12/02 03:01:29;;;;;;;546.17;47.60;;;;;;;2.40;100.00;95774.13;5031400;28;20202;-80
2022/12/02 03:03:59;;;;;;;417.50;38.83;;;;;;;2.30;100.00;95782.44;5031428;28;20211;-80
2022/12/02 03:06:25;;;;;;;345.17;35.93;;;;;;;2.24;100.00;95769.09;5030515;28;20921;-80
2022/12/02 03:08:51;;;;;;;526.10;47.90;;;;;;;2.26;100.00;95769.81;4997965;28;20186;-81
2022/12/02 03:11:16;;;;;;;190.03;28.10;;;;;;;2.32;100.00;95765.25;5031047;28;20202;-81
2022/12/02 03:13:43;;;;;;;520.73;47.80;;;;;;;2.28;100.00;95764.59;5014643;28;20238;-80
2022/12/02 03:16:11;;;;;;;488.10;45.93;;;;;;;2.33;100.00;95761.75;5013799;28;20186;-80
2022/12/02 03:18:37;;;;;;;614.17;51.30;;;;;;;2.36;100.00;95756.44;5013467;28;20187;-81
2022/12/02 03:21:03;;;;;;;214.03;28.83;;;;;;;2.32;100.00;95760.94;5014577;28;20186;-81
2022/12/02 03:23:29;;;;;;;412.53;40.57;;;;;;;2.33;100.00;95756.63;4998124;28;20258;-81
2022/12/02 03:25:55;;;;;;;569.03;47.47;;;;;;;2.35;100.00;95754.81;5013662;28;20188;-81
2022/12/02 03:28:21;;;;;;;304.67;35.40;;;;;;;2.38;100.00;95763.13;5030786;28;20262;-81
2022/12/02 03:30:46;;;;;;;573.93;51.70;;;;;;;2.36;100.00;95759.00;4997347;28;20205;-80
2022/12/02 03:33:11;;;;;;;216.70;32.57;;;;;;;2.42;100.00;95759.47;4997522;28;20207;-81
2022/12/02 03:35:37;;;;;;;429.70;36.50;;;;;;;2.31;100.00;95754.19;4996448;28;20187;-80
2022/12/02 03:38:02;;;;;;;286.50;33.20;;;;;;;2.34;100.00;95756.53;4997364;28;20273;-81
2022/12/02 03:40:28;;;;;;;239.67;33.13;;;;;;;2.35;100.00;95762.50;5030313;28;20187;-81
2022/12/02 03:42:53;;;;;;;183.40;29.37;;;;;;;2.38;100.00;95759.72;5030015;28;20239;-81
2022/12/02 03:45:19;;;;;;;532.83;45.83;;;;;;;2.17;100.00;95762.66;5029247;28;20559;-81
2022/12/02 03:47:44;;;;;;;683.57;53.83;;;;;;;2.17;100.00;95756.72;5030069;28;20722;-81
2022/12/02 03:50:10;;;;;;;606.33;53.30;;;;;;;2.14;100.00;95762.88;5014546;28;20694;-82
2022/12/02 03:52:36;;;;;;;764.63;62.00;;;;;;;2.04;100.00;95756.66;4997650;28;20207;-81
2022/12/02 03:55:02;;;;;;;376.93;38.43;;;;;;;2.15;100.00;95756.81;4997047;28;20231;-81
2022/12/02 03:57:31;;;;;;;372.30;38.10;;;;;;;2.27;100.00;95752.69;4997629;28;20183;-81
2022/12/02 03:59:56;;;;;;;595.20;52.63;;;;;;;2.34;100.00;95753.97;4996936;28;20187;-81
2022/12/02 04:02:21;;;;;;;266.90;34.97;;;;;;;2.35;100.00;95745.38;5030252;28;20257;-81
2022/12/02 04:04:47;;;;;;;137.73;31.50;;;;;;;2.42;100.00;95746.66;5012357;28;20675;-80
2022/12/02 04:07:12;;;;;;;338.60;39.43;;;;;;;2.44;100.00;95744.00;5029704;28;20210;-80
2022/12/02 04:09:37;;;;;;;545.80;47.70;;;;;;;2.40;100.00;95745.94;5011146;28;20187;-80
2022/12/02 04:12:03;;;;;;;381.47;40.30;;;;;;;2.32;100.00;95732.75;5029260;28;20566;-80
2022/12/02 04:14:28;;;;;;;621.27;53.77;;;;;;;2.26;100.00;95735.69;5031088;28;20211;-81
2022/12/02 04:16:53;;;;;;;406.03;41.80;;;;;;;2.33;100.00;95736.97;5029886;28;20187;-80
2022/12/02 04:19:18;;;;;;;374.33;40.80;;;;;;;2.30;100.00;95736.31;5015631;28;20206;-81
2022/12/02 04:21:44;;;;;;;575.60;51.63;;;;;;;2.31;100.00;95730.28;5013772;28;20186;-81
2022/12/02 04:24:09;;;;;;;676.30;55.60;;;;;;;2.37;100.00;95733.28;5030801;28;20214;-80
2022/12/02 04:26:34;;;;;;;437.80;41.73;;;;;;;2.41;100.00;95731.38;4997685;28;20794;-79
2022/12/02 04:29:00;;;;;;;642.57;58.43;;;;;;;2.31;100.00;95728.53;5014091;28;20210;-80
2022/12/02 04:31:25;;;;;;;719.37;56.27;;;;;;;2.22;100.00;95729.94;5013055;28;20183;-80
2022/12/02 04:33:50;;;;;;;544.87;53.30;;;;;;;2.21;100.00;95722.34;5029827;28;20211;-80
2022/12/02 04:36:16;;;;;;;739.80;58.80;;;;;;;2.15;100.00;95726.06;5029186;28;20673;-81
2022/12/02 04:38:41;;;;;;;543.30;50.73;;;;;;;2.20;100.00;95716.34;5013947;28;20183;-80
2022/12/02 04:41:06;;;;;;;463.10;43.80;;;;;;;2.30;100.00;95714.09;5030100;28;20209;-81
2022/12/02 04:43:31;;;;;;;136.70;31.93;;;;;;;2.35;100.00;95719.75;5029370;28;20682;-80
2022/12/02 04:45:57;;;;;;;304.00;39.77;;;;;;;2.37;100.00;95715.34;5029197;28;20622;-80
2022/12/02 04:48:22;;;;;;;279.63;37.57;;;;;;;2.38;100.00;95705.91;5032234;28;20219;-80
2022/12/02 04:50:47;;;;;;;226.37;34.67;;;;;;;2.40;100.00;95715.16;5029550;28;20202;-79
2022/12/02 04:53:13;;;;;;;285.00;34.30;;;;;;;2.38;100.00;95713.59;5030179;28;20206;-81
2022/12/02 04:55:42;;;;;;;262.50;35.07;;;;;;;2.34;100.00;95715.53;5031688;28;20183;-80
2022/12/02 04:58:07;;;;;;;343.77;41.73;;;;;;;2.36;100.00;95711.13;5038215;28;20186;-82
2022/12/02 05:00:33;;;;;;;245.17;36.40;;;;;;;2.44;100.00;95711.50;5038443;28;20183;-81
2022/12/02 05:02:58;;;;;;;98.50;26.67;;;;;;;2.44;100.00;95713.22;5021904;28;20190;-80
2022/12/02 05:05:23;;;;;;;405.27;42.83;;;;;;;2.42;100.00;95710.75;5020589;28;20190;-80
2022/12/02 05:07:49;;;;;;;184.60;33.73;;;;;;;2.51;100.00;95707.63;5020849;28;20278;-79
2022/12/02 05:10:14;;;;;;;294.17;38.90;;;;;;;2.43;100.00;95707.28;5048416;28;20199;-79
2022/12/02 05:12:39;;;;;;;395.73;41.63;;;;;;;2.38;100.00;95711.84;5055305;28;20167;-79
2022/12/02 05:15:05;;;;;;;401.17;40.40;;;;;;;2.34;100.00;95712.16;5056344;28;20227;-79
2022/12/02 05:17:31;;;;;;;167.00;29.97;;;;;;;2.34;100.00;95705.28;5023612;28;20179;-80
2022/12/02 05:19:56;;;;;;;353.47;41.13;;;;;;;2.38;100.00;95711.03;5056652;28;20183;-79
2022/12/02 05:22:22;;;;;;;485.50;45.83;;;;;;;2.39;100.00;95699.88;5039680;28;20183;-79
2022/12/02 05:24:47;;;;;;;275.90;39.57;;;;;;;2.40;100.00;95699.78;5018201;28;20203;-79
2022/12/02 05:27:13;;;;;;;525.93;48.90;;;;;;;2.37;100.00;95694.84;5015020;28;20629;-80
2022/12/02 05:29:38;;;;;;;210.90;31.77;;;;;;;2.40;100.00;95706.66;5032866;28;20194;-80
2022/12/02 05:32:04;;;;;;;411.63;42.37;;;;;;;2.40;100.00;95697.22;5018697;28;20276;-80
2022/12/02 05:34:29;;;;;;;251.37;35.77;;;;;;;2.44;100.00;95700.41;5015462;28;20231;-80
2022/12/02 05:36:54;;;;;;;389.97;44.03;;;;;;;2.41;100.00;95698.88;5016397;28;20195;-80
2022/12/02 05:39:19;;;;;;;138.30;29.53;;;;;;;2.47;100.00;95701.06;5014803;28;20214;-79
2022/12/02 05:41:45;;;;;;;313.93;38.83;;;;;;;2.39;100.00;95695.59;4997403;28;20191;-79
2022/12/02 05:44:22;;;;;;;160.67;30.40;;;;;;;2.43;100.00;95699.59;5013841;28;20223;-80
2022/12/02 05:46:47;;;;;;;323.40;37.40;;;;;;;2.35;100.00;95696.69;4995495;28;20709;-79
2022/12/02 05:49:19;;;;;;;257.73;38.20;;;;;;;2.42;100.00;95697.94;5030356;28;20191;-80
2022/12/02 05:51:46;;;;;;;347.83;40.07;;;;;;;2.43;100.00;95696.22;5029943;28;20546;-80
2022/12/02 05:54:19;;;;;;;289.10;37.13;;;;;;;2.45;100.00;95699.50;5013415;28;20203;-80
2022/12/02 05:56:44;;;;;;;245.20;36.47;;;;;;;2.45;100.00;95695.19;4997746;28;20187;-80
2022/12/02 05:59:14;;;;;;;110.90;27.73;;;;;;;2.45;100.00;95690.06;5030746;28;20609;-80
2022/12/02 06:01:39;;;;;;;240.50;33.30;;;;;;;2.47;100.00;95687.41;4997764;28;20187;-81
2022/12/02 06:04:11;;;;;;;448.83;40.83;;;;;;;2.30;100.00;95695.31;5014070;28;20206;-80
2022/12/02 06:06:37;;;;;;;191.43;25.40;;;;;;;2.36;100.00;95694.94;5013444;28;20678;-80
2022/12/02 06:09:13;;;;;;;340.13;36.33;;;;;;;2.38;100.00;95693.09;4994396;28;20192;-80
2022/12/02 06:11:38;;;;;;;118.80;25.47;;;;;;;2.35;100.00;95699.25;4997058;28;20198;-81
2022/12/02 06:14:31;;;;;;;207.87;27.53;;;;;;;2.35;100.00;95699.25;5029573;28;20222;-80
2022/12/02 06:16:59;;;;;;;416.27;39.90;;;;;;;2.26;100.00;95702.38;5010212;28;20248;-80
2022/12/02 06:19:55;;;;;;;372.60;35.43;;;;;;;2.26;100.00;95697.25;5013969;28;20203;-80
2022/12/02 06:22:26;;;;;;;268.47;37.30;;;;;;;2.28;100.00;95693.66;4938135;29;20206;-80
2022/12/02 06:24:53;;;;;;;390.67;33.93;;;;;;;2.19;100.00;95690.84;4953809;29;20251;-81
2022/12/02 06:27:19;;;;;;;199.20;29.63;;;;;;;2.29;100.00;95694.47;4937677;29;20388;-80
2022/12/02 06:29:48;;;;;;;258.53;31.13;;;;;;;2.29;100.00;95691.91;4921673;29;20335;-80
2022/12/02 06:32:19;;;;;;;274.03;32.03;;;;;;;2.31;100.00;95692.66;4937786;29;20295;-80
2022/12/02 06:34:45;;;;;;;283.63;33.03;;;;;;;2.21;100.00;95687.28;4932939;29;20220;-79
2022/12/02 06:37:17;;;;;;;163.63;27.30;;;;;;;2.35;100.00;95693.28;4939135;29;20182;-80
2022/12/02 06:39:45;;;;;;;441.17;41.57;;;;;;;2.23;100.00;95684.63;4938606;29;20248;-81
2022/12/02 06:42:19;;;;;;;488.93;43.63;;;;;;;2.29;100.00;95694.47;4939017;29;20201;-81
2022/12/02 06:45:03;;;;;;;271.73;31.87;;;;;;;2.26;100.00;95689.56;4937637;29;20239;-80
2022/12/02 06:47:31;;;;;;;226.23;31.17;;;;;;;2.31;100.00;95687.53;4941532;29;20212;-80
2022/12/02 06:49:57;;;;;;;182.63;27.40;;;;;;;2.20;100.00;95689.91;4954526;28;20202;-81
2022/12/02 06:52:22;;;;;;;373.60;35.90;;;;;;;2.14;100.00;95693.69;4938068;29;20201;-80
2022/12/02 06:54:49;;;;;;;353.93;39.63;;;;;;;2.19;100.00;95695.97;4937565;29;20217;-81
2022/12/02 06:57:18;;;;;;;144.30;26.20;;;;;;;2.26;100.00;95692.13;4938391;29;20200;-80
2022/12/02 06:59:46;;;;;;;420.80;36.77;;;;;;;2.20;100.00;95690.72;5005590;28;20569;-80
2022/12/02 07:02:21;;;;;;;275.67;34.03;;;;;;;2.22;100.00;95698.34;5012360;28;20187;-81
2022/12/02 07:04:48;;;;;;;371.57;35.27;;;;;;;2.24;100.00;95694.78;5030119;28;20736;-80
2022/12/02 07:07:22;;;;;;;361.60;37.80;;;;;;;2.20;100.00;95692.47;4997700;28;20237;-81
2022/12/02 07:09:58;;;;;;;72.00;22.10;;;;;;;2.32;100.00;95693.50;5027705;28;20191;-82
2022/12/02 07:12:30;;;;;;;226.97;27.60;;;;;;;2.31;100.00;95690.09;5008680;28;20183;-81
2022/12/02 07:14:57;;;;;;;356.00;33.83;;;;;;;2.31;100.00;95695.22;5011524;28;20253;-80
2022/12/02 07:17:28;;;;;;;223.20;29.07;;;;;;;2.33;100.00;95698.50;5012041;28;20183;-81
2022/12/02 07:20:00;;;;;;;165.30;25.07;;;;;;;2.30;100.00;95692.72;5028269;28;20194;-80
2022/12/02 07:22:37;;;;;;;363.07;37.80;;;;;;;2.29;100.00;95691.91;4994784;28;20219;-80
2022/12/02 07:25:08;;;;;;;296.80;32.90;;;;;;;2.28;100.00;95696.22;5027858;28;20211;-80
2022/12/02 07:27:38;;;;;;;626.50;50.23;;;;;;;2.24;100.00;95691.41;5021433;28;20203;-81
2022/12/02 07:30:25;;;;;;;435.03;35.60;;;;;;;2.26;100.00;95690.38;5028217;28;20195;-81
2022/12/02 07:32:51;;;;;;;182.27;26.43;;;;;;;2.25;100.00;95695.59;5011873;28;20187;-81
2022/12/02 07:35:17;;;;;;;688.50;60.57;;;;;;;2.03;100.00;95695.22;5012159;28;20770;-81
2022/12/02 07:37:42;;;;;;;508.30;39.23;;;;;;;2.12;100.00;95687.00;5012729;28;20572;-81
2022/12/02 07:40:08;;;;;;;151.87;23.77;;;;;;;2.17;100.00;95690.94;5030944;28;20202;-81
2022/12/02 07:42:33;;;;;;;428.03;35.53;;;;;;;2.15;100.00;95684.25;5029158;28;20191;-80
2022/12/02 07:44:58;;;;;;;305.80;28.73;;;;;;;2.14;100.00;95688.56;5028705;28;20217;-81
2022/12/02 07:47:23;;;;;;;254.27;28.17;;;;;;;2.23;100.00;95682.88;5012448;28;20381;-81
2022/12/02 07:49:49;;;;;;;233.13;27.00;;;;;;;2.30;100.00;95683.34;5029029;28;20190;-81
2022/12/02 07:52:14;;;;;;;366.77;33.13;;;;;;;2.23;100.00;95685.44;5013232;28;20655;-80
2022/12/02 07:54:39;;;;;;;294.27;28.73;;;;;;;2.25;100.00;95681.03;5012785;28;20218;-80
2022/12/02 07:57:05;;;;;;;87.33;24.03;;;;;;;2.34;100.00;95684.78;5012464;28;20195;-80
2022/12/02 07:59:30;;;;;;;400.57;38.57;;;;;;;2.28;100.00;95683.41;4996335;28;20211;-81
2022/12/02 08:01:55;;;;;;;480.70;39.40;;;;;;;2.32;100.00;95689.19;5029155;28;20537;-80
2022/12/02 08:04:21;;;;;;;127.90;26.97;;;;;;;2.37;100.00;95682.03;5029282;28;20211;-81
2022/12/02 08:06:46;;;;;;;294.83;30.70;;;;;;;2.40;100.00;95676.72;5028054;28;20207;-81
2022/12/02 08:09:11;;;;;;;410.37;37.17;;;;;;;2.43;100.00;95673.13;5028727;28;20245;-80
2022/12/02 08:11:38;;;;;;;341.23;31.60;;;;;;;2.42;100.00;95680.00;4996149;28;20575;-80
2022/12/02 08:14:03;;;;;;;199.17;26.33;;;;;;;2.44;100.00;95690.16;5012509;28;20217;-80
2022/12/02 08:16:28;;;;;;;367.03;29.50;;;;;;;2.38;100.00;95687.97;4995313;28;20688;-80
2022/12/02 08:18:54;;;;;;;398.37;38.87;;;;;;;2.45;100.00;95682.38;4996190;28;20199;-80
2022/12/02 08:21:19;;;;;;;132.43;23.87;;;;;;;2.53;100.00;95682.72;5028430;28;20192;-81
2022/12/02 08:23:44;;;;;;;537.80;42.87;;;;;;;2.47;100.00;95677.16;5031865;28;20282;-81
2022/12/02 08:26:10;;;;;;;191.50;26.07;;;;;;;2.54;100.00;95684.38;5029137;28;20194;-81
2022/12/02 08:28:35;;;;;;;363.60;32.77;;;;;;;2.59;100.00;95680.72;5013791;28;20187;-80
2022/12/02 08:31:00;;;;;;;232.50;27.87;;;;;;;2.68;100.00;95685.25;5029076;28;20186;-81
2022/12/02 08:33:26;;;;;;;325.90;30.57;;;;;;;2.64;100.00;95681.22;4996144;28;20230;-80
2022/12/02 08:35:51;;;;;;;106.80;22.33;;;;;;;2.71;100.00;95674.78;5013635;28;20277;-80
2022/12/02 08:38:16;;;;;;;302.27;31.03;;;;;;;2.63;100.00;95677.84;5028950;28;20183;-80
2022/12/02 08:40:42;;;;;;;259.80;27.70;;;;;;;2.64;100.00;95678.66;5013064;28;20180;-80
2022/12/02 08:43:08;;;;;;;479.03;35.93;;;;;;;2.40;100.00;95683.59;4996568;28;20219;-80
2022/12/02 08:45:33;;;;;;;153.30;22.40;;;;;;;2.55;100.00;95669.81;5012750;28;20314;-83
2022/12/02 08:47:58;;;;;;;218.37;28.57;;;;;;;2.60;100.00;95672.91;5012712;28;20211;-82
2022/12/02 08:50:24;;;;;;;512.07;37.70;;;;;;;2.51;100.00;95668.38;4995767;28;20546;-82
2022/12/02 08:52:49;;;;;;;466.57;35.03;;;;;;;2.55;100.00;95673.19;5012856;28;20218;-82
2022/12/02 08:55:14;;;;;;;284.93;27.37;;;;;;;2.53;100.00;95675.03;5028000;28;20577;-82
2022/12/02 08:57:40;;;;;;;321.50;31.93;;;;;;;2.52;100.00;95670.00;5012440;28;20553;-82
2022/12/02 09:00:07;;;;;;;423.50;34.30;;;;;;;2.58;100.00;95663.69;4995665;28;20714;-80
2022/12/02 09:02:33;;;;;;;309.73;30.00;;;;;;;2.54;100.00;95668.16;5013247;28;20194;-82
2022/12/02 09:04:58;;;;;;;317.17;31.40;;;;;;;2.53;100.00;95663.97;5027698;28;20203;-82
2022/12/02 09:07:24;;;;;;;242.17;27.33;;;;;;;2.56;100.00;95666.31;5011977;28;20417;-81
2022/12/02 09:09:49;;;;;;;153.03;25.40;;;;;;;2.64;100.00;95665.84;5028130;28;20214;-82
2022/12/02 09:12:14;;;;;;;305.47;29.23;;;;;;;2.61;100.00;95666.03;4993802;28;20613;-81
2022/12/02 09:14:39;;;;;;;143.17;20.67;;;;;;;2.55;100.00;95665.50;4995029;28;20690;-79
2022/12/02 09:17:05;;;;;;;225.50;27.07;;;;;;;2.62;100.00;95660.00;4995102;28;20191;-79
2022/12/02 09:19:30;;;;;;;386.13;30.77;;;;;;;2.53;100.00;95661.41;5011579;28;20183;-82
2022/12/02 09:21:55;;;;;;;151.43;21.20;;;;;;;2.51;100.00;95656.38;5011799;28;20208;-81
2022/12/02 09:24:22;;;;;;;294.40;28.13;;;;;;;2.36;100.00;95659.06;5027946;28;20238;-81
2022/12/02 09:26:47;;;;;;;406.20;29.80;;;;;;;2.06;100.00;95659.22;5027378;28;20208;-81
2022/12/02 09:29:12;;;;;;;361.07;30.27;;;;;;;2.23;100.00;95664.13;5027988;28;20213;-82
2022/12/02 09:31:38;;;;;;;111.00;18.30;;;;;;;2.37;100.00;95656.38;5012086;28;20206;-81
2022/12/02 09:34:03;;;;;;;212.83;25.60;;;;;;;2.55;100.00;95657.81;5028608;28;20270;-82
2022/12/02 09:36:28;;;;;;;393.17;30.93;;;;;;;2.59;100.00;95658.44;5011104;28;20184;-80
2022/12/02 09:38:54;;;;;;;154.00;21.73;;;;;;;2.65;100.00;95659.78;5011908;28;20179;-80
2022/12/02 09:41:19;;;;;;;222.27;24.90;;;;;;;2.59;100.00;95653.31;5028007;28;20247;-80
2022/12/02 09:43:44;;;;;;;64.30;18.20;;;;;;;2.72;100.00;95661.06;5012198;28;20223;-81
2022/12/02 09:46:09;;;;;;;140.07;23.33;;;;;;;2.65;100.00;95650.38;5031504;28;20563;-80
2022/12/02 09:48:36;;;;;;;175.17;23.20;;;;;;;2.60;100.00;95651.59;5032448;28;20691;-81
2022/12/02 09:51:01;;;;;;;79.53;17.90;;;;;;;2.69;100.00;95651.81;4999215;28;20195;-81
2022/12/02 09:53:31;;;;;;;176.70;22.57;;;;;;;2.76;100.00;95647.97;5031306;28;20214;-80
2022/12/02 09:55:56;;;;;;;279.90;26.20;;;;;;;2.69;100.00;95648.44;5033750;28;20194;-80
2022/12/02 09:58:22;;;;;;;339.10;34.17;;;;;;;2.69;100.00;95653.56;5032035;28;20187;-80
2022/12/02 10:00:49;;;;;;;256.70;26.33;;;;;;;2.76;100.00;95652.25;5015655;28;20183;-81
2022/12/02 10:03:16;;;;;;;156.10;24.13;;;;;;;2.91;100.00;95642.75;5031796;28;20210;-80
2022/12/02 10:05:41;;;;;;;147.33;23.87;;;;;;;2.99;100.00;95640.50;5030995;28;20183;-80
2022/12/02 10:08:12;;;;;;;479.50;38.13;;;;;;;2.77;100.00;95641.91;4998617;28;20210;-81
2022/12/02 10:10:40;;;;;;;321.07;33.43;;;;;;;2.81;100.00;95640.78;5029007;28;20175;-81
2022/12/02 10:13:05;;;;;;;226.83;27.87;;;;;;;2.80;100.00;95634.00;5032742;28;20241;-80
2022/12/02 10:15:31;;;;;;;334.43;29.57;;;;;;;2.87;100.00;95637.00;5031143;28;20262;-80
2022/12/02 10:17:59;;;;;;;304.17;30.07;;;;;;;2.93;100.00;95636.63;5032008;28;20206;-80
2022/12/02 10:20:25;;;;;;;189.87;24.77;;;;;;;2.91;100.00;95625.59;4998564;28;20189;-80
2022/12/02 10:23:14;;;;;;;97.37;21.07;;;;;;;3.02;100.00;95638.59;5015168;28;20184;-80
2022/12/02 10:25:43;;;;;;;47.67;19.63;;;;;;;3.04;100.00;95626.47;5014779;28;20190;-81
2022/12/02 10:28:29;;;;;;;324.93;28.87;;;;;;;3.00;100.00;95625.00;5013340;28;20210;-80
2022/12/02 10:31:09;;;;;;;282.70;27.07;;;;;;;2.87;100.00;95626.75;4994776;28;20241;-80
2022/12/02 10:33:37;;;;;;;88.90;19.40;;;;;;;2.89;100.00;95617.19;5014787;28;20198;-82
2022/12/02 10:36:03;;;;;;;191.90;22.27;;;;;;;2.92;100.00;95611.06;5029516;28;20659;-81
2022/12/02 10:38:36;;;;;;;67.23;20.27;;;;;;;3.11;100.00;95611.50;5015092;28;20249;-81
2022/12/02 10:41:14;;;;;;;61.73;16.23;;;;;;;3.02;100.00;95612.94;5031548;28;20292;-82
2022/12/02 10:43:41;;;;;;;28.40;15.20;;;;;;;3.02;100.00;95607.81;5021086;28;20231;-81
2022/12/02 10:46:06;;;;;;;40.00;14.90;;;;;;;3.08;100.00;95612.50;4997290;28;20211;-81
2022/12/02 10:48:31;;;;;;;41.07;15.20;;;;;;;3.08;100.00;95607.38;5030683;28;20678;-80
2022/12/02 10:50:57;;;;;;;28.30;13.63;;;;;;;3.09;100.00;95603.91;5030745;28;20202;-80
2022/12/02 10:53:27;;;;;;;30.93;13.43;;;;;;;3.14;100.00;95598.47;5030338;28;20219;-81
2022/12/02 10:55:54;;;;;;;25.20;13.23;;;;;;;3.09;100.00;95595.38;5028391;28;20218;-81
2022/12/02 10:58:29;;;;;;;26.87;13.13;;;;;;;3.08;100.00;95596.28;4997720;28;20195;-81
2022/12/02 11:00:56;;;;;;;26.30;12.77;;;;;;;3.08;100.00;95599.69;4997765;28;20205;-82
2022/12/02 11:03:22;;;;;;;41.83;12.97;;;;;;;3.03;100.00;95596.63;5031250;28;20211;-81
2022/12/02 11:05:47;;;;;;;29.43;14.13;;;;;;;3.09;100.00;95592.81;5030328;28;20198;-82
2022/12/02 11:08:22;;;;;;;66.07;14.70;;;;;;;3.00;99.94;95588.28;5030933;28;20206;-81
2022/12/02 11:10:50;;;;;;;29.53;13.40;;;;;;;3.09;100.00;95585.09;5029175;28;20188;-80